sensor_id;sensor_type;location;lat;lon;timestamp;P1;durP1;ratioP1;P2;durP2;ratioP2
18445;SDS011;9352;50.888;4.466;2023-08-21T00:01:39;6.47;;;2.22;;
18445;SDS011;9352;50.888;4.466;2023-08-21T00:04:06;12.73;;;2.70;;
18445;SDS011;9352;50.888;4.466;2023-08-21T00:06:33;8.07;;;1.90;;
18445;SDS011;9352;50.888;4.466;2023-08-21T00:09:00;8.07;;;2.17;;
18445;SDS011;9352;50.888;4.466;2023-08-21T00:11:27;12.38;;;2.75;;
18445;SDS011;9352;50.888;4.466;2023-08-21T00:13:55;5.63;;;1.90;;
18445;SDS011;9352;50.888;4.466;2023-08-21T00:16:22;7.90;;;1.83;;
18445;SDS011;9352;50.888;4.466;2023-08-21T00:18:49;8.00;;;2.13;;
18445;SDS011;9352;50.888;4.466;2023-08-21T00:21:16;9.70;;;2.30;;
18445;SDS011;9352;50.888;4.466;2023-08-21T00:23:43;7.40;;;2.15;;
18445;SDS011;9352;50.888;4.466;2023-08-21T00:26:10;13.82;;;2.28;;
18445;SDS011;9352;50.888;4.466;2023-08-21T00:28:37;6.97;;;2.33;;
18445;SDS011;9352;50.888;4.466;2023-08-21T00:31:05;6.78;;;2.10;;
18445;SDS011;9352;50.888;4.466;2023-08-21T00:33:32;7.45;;;2.42;;
18445;SDS011;9352;50.888;4.466;2023-08-21T00:35:59;8.25;;;2.65;;
18445;SDS011;9352;50.888;4.466;2023-08-21T00:38:26;8.73;;;2.35;;
18445;SDS011;9352;50.888;4.466;2023-08-21T00:40:53;9.05;;;2.08;;
18445;SDS011;9352;50.888;4.466;2023-08-21T00:43:20;5.75;;;2.22;;
18445;SDS011;9352;50.888;4.466;2023-08-21T00:45:48;10.90;;;2.58;;
18445;SDS011;9352;50.888;4.466;2023-08-21T00:48:17;14.48;;;3.00;;
18445;SDS011;9352;50.888;4.466;2023-08-21T00:50:45;11.55;;;2.95;;
18445;SDS011;9352;50.888;4.466;2023-08-21T00:53:12;13.63;;;2.08;;
18445;SDS011;9352;50.888;4.466;2023-08-21T00:55:39;12.15;;;2.95;;
18445;SDS011;9352;50.888;4.466;2023-08-21T00:58:08;12.00;;;2.30;;
18445;SDS011;9352;50.888;4.466;2023-08-21T01:00:36;7.10;;;2.65;;
18445;SDS011;9352;50.888;4.466;2023-08-21T01:03:03;7.90;;;2.40;;
18445;SDS011;9352;50.888;4.466;2023-08-21T01:05:32;9.02;;;2.40;;
18445;SDS011;9352;50.888;4.466;2023-08-21T01:08:01;12.13;;;2.20;;
18445;SDS011;9352;50.888;4.466;2023-08-21T01:10:33;7.63;;;2.65;;
18445;SDS011;9352;50.888;4.466;2023-08-21T01:13:09;7.95;;;2.53;;
18445;SDS011;9352;50.888;4.466;2023-08-21T01:15:43;4.82;;;2.30;;
18445;SDS011;9352;50.888;4.466;2023-08-21T01:18:12;7.72;;;2.70;;
18445;SDS011;9352;50.888;4.466;2023-08-21T01:20:42;8.00;;;2.58;;
18445;SDS011;9352;50.888;4.466;2023-08-21T01:23:09;8.93;;;2.40;;
18445;SDS011;9352;50.888;4.466;2023-08-21T01:25:37;9.80;;;2.33;;
18445;SDS011;9352;50.888;4.466;2023-08-21T01:28:07;6.55;;;2.30;;
18445;SDS011;9352;50.888;4.466;2023-08-21T01:30:36;8.27;;;2.25;;
18445;SDS011;9352;50.888;4.466;2023-08-21T01:33:05;9.98;;;2.45;;
18445;SDS011;9352;50.888;4.466;2023-08-21T01:35:36;8.55;;;2.30;;
18445;SDS011;9352;50.888;4.466;2023-08-21T01:38:03;9.98;;;2.67;;
18445;SDS011;9352;50.888;4.466;2023-08-21T01:40:30;7.28;;;2.72;;
18445;SDS011;9352;50.888;4.466;2023-08-21T01:42:58;8.23;;;2.30;;
18445;SDS011;9352;50.888;4.466;2023-08-21T01:45:25;10.68;;;2.47;;
18445;SDS011;9352;50.888;4.466;2023-08-21T01:47:52;10.50;;;2.33;;
18445;SDS011;9352;50.888;4.466;2023-08-21T01:50:19;7.60;;;2.53;;
18445;SDS011;9352;50.888;4.466;2023-08-21T01:52:46;11.27;;;2.40;;
18445;SDS011;9352;50.888;4.466;2023-08-21T01:55:13;12.18;;;2.35;;
18445;SDS011;9352;50.888;4.466;2023-08-21T01:57:40;8.57;;;2.72;;
18445;SDS011;9352;50.888;4.466;2023-08-21T02:00:09;7.32;;;2.28;;
18445;SDS011;9352;50.888;4.466;2023-08-21T02:02:38;6.95;;;2.60;;
18445;SDS011;9352;50.888;4.466;2023-08-21T02:05:05;9.23;;;2.80;;
18445;SDS011;9352;50.888;4.466;2023-08-21T02:07:32;10.73;;;2.85;;
18445;SDS011;9352;50.888;4.466;2023-08-21T02:09:59;10.75;;;2.75;;
18445;SDS011;9352;50.888;4.466;2023-08-21T02:12:26;12.30;;;3.10;;
18445;SDS011;9352;50.888;4.466;2023-08-21T02:14:53;12.13;;;2.70;;
18445;SDS011;9352;50.888;4.466;2023-08-21T02:17:22;6.45;;;2.25;;
18445;SDS011;9352;50.888;4.466;2023-08-21T02:19:48;11.70;;;2.47;;
18445;SDS011;9352;50.888;4.466;2023-08-21T02:22:15;9.68;;;2.78;;
18445;SDS011;9352;50.888;4.466;2023-08-21T02:24:42;12.68;;;2.60;;
18445;SDS011;9352;50.888;4.466;2023-08-21T02:27:09;8.60;;;2.53;;
18445;SDS011;9352;50.888;4.466;2023-08-21T02:29:36;7.60;;;2.33;;
18445;SDS011;9352;50.888;4.466;2023-08-21T02:32:03;10.23;;;2.70;;
18445;SDS011;9352;50.888;4.466;2023-08-21T02:34:31;10.98;;;2.50;;
18445;SDS011;9352;50.888;4.466;2023-08-21T02:36:58;10.52;;;2.53;;
18445;SDS011;9352;50.888;4.466;2023-08-21T02:39:25;11.40;;;2.50;;
18445;SDS011;9352;50.888;4.466;2023-08-21T02:41:52;8.38;;;2.45;;
18445;SDS011;9352;50.888;4.466;2023-08-21T02:44:19;9.40;;;2.75;;
18445;SDS011;9352;50.888;4.466;2023-08-21T02:46:46;8.70;;;2.80;;
18445;SDS011;9352;50.888;4.466;2023-08-21T02:49:12;13.73;;;2.75;;
18445;SDS011;9352;50.888;4.466;2023-08-21T02:51:41;6.40;;;2.35;;
18445;SDS011;9352;50.888;4.466;2023-08-21T02:54:08;8.35;;;2.47;;
18445;SDS011;9352;50.888;4.466;2023-08-21T02:56:34;14.75;;;2.55;;
18445;SDS011;9352;50.888;4.466;2023-08-21T02:59:01;11.88;;;2.65;;
18445;SDS011;9352;50.888;4.466;2023-08-21T03:01:28;15.73;;;2.88;;
18445;SDS011;9352;50.888;4.466;2023-08-21T03:03:55;9.63;;;3.10;;
18445;SDS011;9352;50.888;4.466;2023-08-21T03:06:22;14.00;;;2.85;;
18445;SDS011;9352;50.888;4.466;2023-08-21T03:08:50;5.93;;;2.42;;
18445;SDS011;9352;50.888;4.466;2023-08-21T03:11:17;11.02;;;2.50;;
18445;SDS011;9352;50.888;4.466;2023-08-21T03:13:44;10.70;;;2.53;;
18445;SDS011;9352;50.888;4.466;2023-08-21T03:16:11;18.05;;;3.05;;
18445;SDS011;9352;50.888;4.466;2023-08-21T03:18:53;12.27;;;2.92;;
18445;SDS011;9352;50.888;4.466;2023-08-21T03:21:21;21.80;;;2.88;;
18445;SDS011;9352;50.888;4.466;2023-08-21T03:23:51;15.95;;;2.50;;
18445;SDS011;9352;50.888;4.466;2023-08-21T03:26:20;11.23;;;3.40;;
18445;SDS011;9352;50.888;4.466;2023-08-21T03:28:47;8.38;;;3.00;;
18445;SDS011;9352;50.888;4.466;2023-08-21T03:31:14;16.73;;;3.17;;
18445;SDS011;9352;50.888;4.466;2023-08-21T03:33:41;11.20;;;3.15;;
18445;SDS011;9352;50.888;4.466;2023-08-21T03:36:08;19.27;;;3.35;;
18445;SDS011;9352;50.888;4.466;2023-08-21T03:38:35;12.48;;;2.70;;
18445;SDS011;9352;50.888;4.466;2023-08-21T03:41:04;18.05;;;3.28;;
18445;SDS011;9352;50.888;4.466;2023-08-21T03:43:31;16.50;;;3.28;;
18445;SDS011;9352;50.888;4.466;2023-08-21T03:45:58;14.25;;;3.25;;
18445;SDS011;9352;50.888;4.466;2023-08-21T03:48:25;12.98;;;3.38;;
18445;SDS011;9352;50.888;4.466;2023-08-21T03:50:51;14.45;;;2.92;;
18445;SDS011;9352;50.888;4.466;2023-08-21T03:53:18;11.73;;;2.72;;
18445;SDS011;9352;50.888;4.466;2023-08-21T03:55:45;12.60;;;2.67;;
18445;SDS011;9352;50.888;4.466;2023-08-21T03:58:13;13.05;;;3.22;;
18445;SDS011;9352;50.888;4.466;2023-08-21T04:00:41;16.42;;;3.42;;
18445;SDS011;9352;50.888;4.466;2023-08-21T04:03:08;7.15;;;2.53;;
18445;SDS011;9352;50.888;4.466;2023-08-21T04:05:34;11.00;;;3.13;;
18445;SDS011;9352;50.888;4.466;2023-08-21T04:08:01;11.45;;;2.50;;
18445;SDS011;9352;50.888;4.466;2023-08-21T04:10:29;10.90;;;2.60;;
18445;SDS011;9352;50.888;4.466;2023-08-21T04:12:55;17.25;;;5.97;;
18445;SDS011;9352;50.888;4.466;2023-08-21T04:15:24;9.85;;;2.70;;
18445;SDS011;9352;50.888;4.466;2023-08-21T04:17:51;7.90;;;2.50;;
18445;SDS011;9352;50.888;4.466;2023-08-21T04:20:19;7.30;;;2.60;;
18445;SDS011;9352;50.888;4.466;2023-08-21T04:22:47;9.30;;;3.00;;
18445;SDS011;9352;50.888;4.466;2023-08-21T04:25:14;12.75;;;2.75;;
18445;SDS011;9352;50.888;4.466;2023-08-21T04:27:41;7.13;;;2.78;;
18445;SDS011;9352;50.888;4.466;2023-08-21T04:30:08;10.30;;;2.67;;
18445;SDS011;9352;50.888;4.466;2023-08-21T04:32:37;12.35;;;2.80;;
18445;SDS011;9352;50.888;4.466;2023-08-21T04:35:05;14.20;;;2.83;;
18445;SDS011;9352;50.888;4.466;2023-08-21T04:37:33;9.95;;;2.30;;
18445;SDS011;9352;50.888;4.466;2023-08-21T04:40:00;11.18;;;2.40;;
18445;SDS011;9352;50.888;4.466;2023-08-21T04:42:27;14.38;;;2.65;;
18445;SDS011;9352;50.888;4.466;2023-08-21T04:44:54;14.98;;;2.65;;
18445;SDS011;9352;50.888;4.466;2023-08-21T04:47:22;12.75;;;2.60;;
18445;SDS011;9352;50.888;4.466;2023-08-21T04:49:52;12.32;;;2.60;;
18445;SDS011;9352;50.888;4.466;2023-08-21T04:52:19;12.70;;;2.88;;
18445;SDS011;9352;50.888;4.466;2023-08-21T04:54:46;10.77;;;2.40;;
18445;SDS011;9352;50.888;4.466;2023-08-21T04:57:13;10.38;;;2.72;;
18445;SDS011;9352;50.888;4.466;2023-08-21T04:59:41;13.50;;;2.95;;
18445;SDS011;9352;50.888;4.466;2023-08-21T05:02:08;19.23;;;3.45;;
18445;SDS011;9352;50.888;4.466;2023-08-21T05:04:35;14.32;;;3.47;;
18445;SDS011;9352;50.888;4.466;2023-08-21T05:07:04;13.20;;;3.63;;
18445;SDS011;9352;50.888;4.466;2023-08-21T05:09:31;16.58;;;3.25;;
18445;SDS011;9352;50.888;4.466;2023-08-21T05:11:58;27.35;;;4.07;;
18445;SDS011;9352;50.888;4.466;2023-08-21T05:14:25;21.30;;;3.55;;
18445;SDS011;9352;50.888;4.466;2023-08-21T05:16:52;17.50;;;3.97;;
18445;SDS011;9352;50.888;4.466;2023-08-21T05:19:19;13.93;;;3.42;;
18445;SDS011;9352;50.888;4.466;2023-08-21T05:21:46;16.48;;;3.63;;
18445;SDS011;9352;50.888;4.466;2023-08-21T05:24:14;18.75;;;4.60;;
18445;SDS011;9352;50.888;4.466;2023-08-21T05:26:41;16.33;;;3.78;;
18445;SDS011;9352;50.888;4.466;2023-08-21T05:29:08;12.25;;;3.55;;
18445;SDS011;9352;50.888;4.466;2023-08-21T05:31:35;15.50;;;3.70;;
18445;SDS011;9352;50.888;4.466;2023-08-21T05:34:02;15.32;;;4.65;;
18445;SDS011;9352;50.888;4.466;2023-08-21T05:36:29;25.75;;;4.38;;
18445;SDS011;9352;50.888;4.466;2023-08-21T05:38:56;22.42;;;4.68;;
18445;SDS011;9352;50.888;4.466;2023-08-21T05:41:25;18.92;;;4.45;;
18445;SDS011;9352;50.888;4.466;2023-08-21T05:43:51;18.83;;;4.30;;
18445;SDS011;9352;50.888;4.466;2023-08-21T05:46:18;27.95;;;4.53;;
18445;SDS011;9352;50.888;4.466;2023-08-21T05:48:45;20.05;;;3.97;;
18445;SDS011;9352;50.888;4.466;2023-08-21T05:51:12;24.65;;;4.55;;
18445;SDS011;9352;50.888;4.466;2023-08-21T05:53:39;16.30;;;4.47;;
18445;SDS011;9352;50.888;4.466;2023-08-21T05:56:06;19.70;;;3.90;;
18445;SDS011;9352;50.888;4.466;2023-08-21T05:58:34;14.90;;;3.90;;
18445;SDS011;9352;50.888;4.466;2023-08-21T06:01:01;25.42;;;4.55;;
18445;SDS011;9352;50.888;4.466;2023-08-21T06:03:28;19.42;;;4.53;;
18445;SDS011;9352;50.888;4.466;2023-08-21T06:05:55;17.58;;;5.15;;
18445;SDS011;9352;50.888;4.466;2023-08-21T06:08:22;18.50;;;4.60;;
18445;SDS011;9352;50.888;4.466;2023-08-21T06:10:50;18.35;;;5.38;;
18445;SDS011;9352;50.888;4.466;2023-08-21T06:13:18;23.65;;;4.57;;
18445;SDS011;9352;50.888;4.466;2023-08-21T06:15:46;31.20;;;4.97;;
18445;SDS011;9352;50.888;4.466;2023-08-21T06:18:13;23.85;;;4.85;;
18445;SDS011;9352;50.888;4.466;2023-08-21T06:20:41;27.50;;;5.30;;
18445;SDS011;9352;50.888;4.466;2023-08-21T06:23:09;21.73;;;4.40;;
18445;SDS011;9352;50.888;4.466;2023-08-21T06:25:36;22.50;;;5.57;;
18445;SDS011;9352;50.888;4.466;2023-08-21T06:28:03;23.55;;;4.70;;
18445;SDS011;9352;50.888;4.466;2023-08-21T06:30:30;25.05;;;5.57;;
18445;SDS011;9352;50.888;4.466;2023-08-21T06:32:59;27.95;;;5.72;;
18445;SDS011;9352;50.888;4.466;2023-08-21T06:35:25;29.40;;;5.43;;
18445;SDS011;9352;50.888;4.466;2023-08-21T06:37:52;21.75;;;4.72;;
18445;SDS011;9352;50.888;4.466;2023-08-21T06:40:20;24.27;;;4.68;;
18445;SDS011;9352;50.888;4.466;2023-08-21T06:42:47;28.15;;;4.88;;
18445;SDS011;9352;50.888;4.466;2023-08-21T06:45:16;22.38;;;4.88;;
18445;SDS011;9352;50.888;4.466;2023-08-21T06:47:43;26.77;;;4.75;;
18445;SDS011;9352;50.888;4.466;2023-08-21T06:50:11;20.33;;;4.72;;
18445;SDS011;9352;50.888;4.466;2023-08-21T06:52:39;24.20;;;5.10;;
18445;SDS011;9352;50.888;4.466;2023-08-21T06:55:06;22.52;;;5.80;;
18445;SDS011;9352;50.888;4.466;2023-08-21T06:57:33;23.67;;;6.13;;
18445;SDS011;9352;50.888;4.466;2023-08-21T07:00:01;23.13;;;4.65;;
18445;SDS011;9352;50.888;4.466;2023-08-21T07:02:29;15.10;;;4.35;;
18445;SDS011;9352;50.888;4.466;2023-08-21T07:04:56;20.73;;;4.00;;
18445;SDS011;9352;50.888;4.466;2023-08-21T07:07:24;21.98;;;4.57;;
18445;SDS011;9352;50.888;4.466;2023-08-21T07:09:51;15.15;;;4.18;;
18445;SDS011;9352;50.888;4.466;2023-08-21T07:12:18;17.92;;;4.28;;
18445;SDS011;9352;50.888;4.466;2023-08-21T07:14:45;16.33;;;3.83;;
18445;SDS011;9352;50.888;4.466;2023-08-21T07:17:11;18.67;;;3.80;;
18445;SDS011;9352;50.888;4.466;2023-08-21T07:19:38;16.02;;;3.85;;
18445;SDS011;9352;50.888;4.466;2023-08-21T07:22:05;13.95;;;3.30;;
18445;SDS011;9352;50.888;4.466;2023-08-21T07:24:34;22.48;;;3.65;;
18445;SDS011;9352;50.888;4.466;2023-08-21T07:27:00;14.48;;;4.10;;
18445;SDS011;9352;50.888;4.466;2023-08-21T07:29:27;19.20;;;4.15;;
18445;SDS011;9352;50.888;4.466;2023-08-21T07:31:55;15.77;;;3.80;;
18445;SDS011;9352;50.888;4.466;2023-08-21T07:34:22;15.48;;;4.03;;
18445;SDS011;9352;50.888;4.466;2023-08-21T07:36:49;21.98;;;4.28;;
18445;SDS011;9352;50.888;4.466;2023-08-21T07:39:16;19.60;;;4.00;;
18445;SDS011;9352;50.888;4.466;2023-08-21T07:41:44;15.48;;;4.20;;
18445;SDS011;9352;50.888;4.466;2023-08-21T07:44:11;17.55;;;4.88;;
18445;SDS011;9352;50.888;4.466;2023-08-21T07:46:38;17.20;;;3.90;;
18445;SDS011;9352;50.888;4.466;2023-08-21T07:49:04;17.45;;;3.67;;
18445;SDS011;9352;50.888;4.466;2023-08-21T07:51:32;16.50;;;3.58;;
18445;SDS011;9352;50.888;4.466;2023-08-21T07:53:58;12.95;;;3.40;;
18445;SDS011;9352;50.888;4.466;2023-08-21T07:56:25;19.13;;;3.85;;
18445;SDS011;9352;50.888;4.466;2023-08-21T07:58:54;31.58;;;4.30;;
18445;SDS011;9352;50.888;4.466;2023-08-21T08:01:20;18.50;;;3.78;;
18445;SDS011;9352;50.888;4.466;2023-08-21T08:03:47;19.63;;;4.05;;
18445;SDS011;9352;50.888;4.466;2023-08-21T08:06:15;14.10;;;3.35;;
18445;SDS011;9352;50.888;4.466;2023-08-21T08:08:42;19.70;;;3.40;;
18445;SDS011;9352;50.888;4.466;2023-08-21T08:11:09;16.52;;;3.90;;
18445;SDS011;9352;50.888;4.466;2023-08-21T08:13:35;20.13;;;3.88;;
18445;SDS011;9352;50.888;4.466;2023-08-21T08:16:04;12.05;;;3.83;;
18445;SDS011;9352;50.888;4.466;2023-08-21T08:18:31;23.48;;;3.17;;
18445;SDS011;9352;50.888;4.466;2023-08-21T08:20:57;13.90;;;3.63;;
18445;SDS011;9352;50.888;4.466;2023-08-21T08:23:25;19.40;;;3.50;;
18445;SDS011;9352;50.888;4.466;2023-08-21T08:25:51;15.70;;;3.70;;
18445;SDS011;9352;50.888;4.466;2023-08-21T08:28:19;14.50;;;3.30;;
18445;SDS011;9352;50.888;4.466;2023-08-21T08:30:45;22.60;;;3.90;;
18445;SDS011;9352;50.888;4.466;2023-08-21T08:33:14;13.70;;;3.35;;
18445;SDS011;9352;50.888;4.466;2023-08-21T08:35:41;15.05;;;3.63;;
18445;SDS011;9352;50.888;4.466;2023-08-21T08:38:08;16.17;;;4.20;;
18445;SDS011;9352;50.888;4.466;2023-08-21T08:40:35;17.52;;;3.30;;
18445;SDS011;9352;50.888;4.466;2023-08-21T08:43:08;18.30;;;3.50;;
18445;SDS011;9352;50.888;4.466;2023-08-21T08:45:37;17.95;;;3.65;;
18445;SDS011;9352;50.888;4.466;2023-08-21T08:48:06;14.57;;;3.45;;
18445;SDS011;9352;50.888;4.466;2023-08-21T08:50:34;16.83;;;3.70;;
18445;SDS011;9352;50.888;4.466;2023-08-21T08:53:04;25.40;;;3.30;;
18445;SDS011;9352;50.888;4.466;2023-08-21T08:55:34;14.23;;;3.63;;
18445;SDS011;9352;50.888;4.466;2023-08-21T08:58:00;17.08;;;3.13;;
18445;SDS011;9352;50.888;4.466;2023-08-21T09:00:27;9.52;;;2.42;;
18445;SDS011;9352;50.888;4.466;2023-08-21T09:02:55;11.32;;;2.50;;
18445;SDS011;9352;50.888;4.466;2023-08-21T09:05:22;16.90;;;3.00;;
18445;SDS011;9352;50.888;4.466;2023-08-21T09:08:03;10.95;;;2.72;;
18445;SDS011;9352;50.888;4.466;2023-08-21T09:10:35;9.13;;;3.08;;
18445;SDS011;9352;50.888;4.466;2023-08-21T09:13:08;5.65;;;2.10;;
18445;SDS011;9352;50.888;4.466;2023-08-21T09:15:35;8.73;;;2.85;;
18445;SDS011;9352;50.888;4.466;2023-08-21T09:18:03;7.88;;;2.25;;
18445;SDS011;9352;50.888;4.466;2023-08-21T09:20:34;7.82;;;1.90;;
18445;SDS011;9352;50.888;4.466;2023-08-21T09:23:03;9.05;;;1.80;;
18445;SDS011;9352;50.888;4.466;2023-08-21T09:25:33;6.70;;;1.77;;
18445;SDS011;9352;50.888;4.466;2023-08-21T09:28:01;14.60;;;2.60;;
18445;SDS011;9352;50.888;4.466;2023-08-21T09:30:42;8.85;;;2.28;;
18445;SDS011;9352;50.888;4.466;2023-08-21T09:33:11;9.07;;;2.10;;
18445;SDS011;9352;50.888;4.466;2023-08-21T09:35:38;7.05;;;2.10;;
18445;SDS011;9352;50.888;4.466;2023-08-21T09:38:08;7.93;;;2.45;;
18445;SDS011;9352;50.888;4.466;2023-08-21T09:40:38;7.10;;;1.77;;
18445;SDS011;9352;50.888;4.466;2023-08-21T09:43:07;5.10;;;1.60;;
18445;SDS011;9352;50.888;4.466;2023-08-21T09:45:35;5.43;;;1.60;;
18445;SDS011;9352;50.888;4.466;2023-08-21T09:48:02;7.20;;;2.00;;
18445;SDS011;9352;50.888;4.466;2023-08-21T09:50:30;2.83;;;1.70;;
18445;SDS011;9352;50.888;4.466;2023-08-21T09:52:58;4.93;;;1.90;;
18445;SDS011;9352;50.888;4.466;2023-08-21T09:55:26;4.75;;;1.75;;
18445;SDS011;9352;50.888;4.466;2023-08-21T09:57:54;7.32;;;2.00;;
18445;SDS011;9352;50.888;4.466;2023-08-21T10:00:26;4.47;;;1.63;;
18445;SDS011;9352;50.888;4.466;2023-08-21T10:02:55;2.65;;;1.20;;
18445;SDS011;9352;50.888;4.466;2023-08-21T10:05:28;7.82;;;1.60;;
18445;SDS011;9352;50.888;4.466;2023-08-21T10:07:56;1.45;;;1.08;;
18445;SDS011;9352;50.888;4.466;2023-08-21T10:10:29;3.88;;;1.30;;
18445;SDS011;9352;50.888;4.466;2023-08-21T10:12:58;3.13;;;1.60;;
18445;SDS011;9352;50.888;4.466;2023-08-21T10:15:25;6.70;;;2.05;;
18445;SDS011;9352;50.888;4.466;2023-08-21T10:17:53;2.50;;;1.75;;
18445;SDS011;9352;50.888;4.466;2023-08-21T10:20:20;5.05;;;2.08;;
18445;SDS011;9352;50.888;4.466;2023-08-21T10:22:49;10.60;;;2.20;;
18445;SDS011;9352;50.888;4.466;2023-08-21T10:25:20;5.45;;;1.77;;
18445;SDS011;9352;50.888;4.466;2023-08-21T10:27:53;2.70;;;1.60;;
18445;SDS011;9352;50.888;4.466;2023-08-21T10:30:22;5.93;;;2.05;;
18445;SDS011;9352;50.888;4.466;2023-08-21T10:32:51;1.90;;;1.42;;
18445;SDS011;9352;50.888;4.466;2023-08-21T10:35:21;2.40;;;1.50;;
18445;SDS011;9352;50.888;4.466;2023-08-21T10:38:05;7.00;;;2.05;;
18445;SDS011;9352;50.888;4.466;2023-08-21T10:40:33;3.47;;;1.70;;
18445;SDS011;9352;50.888;4.466;2023-08-21T10:43:01;3.28;;;1.50;;
18445;SDS011;9352;50.888;4.466;2023-08-21T10:45:28;3.80;;;1.48;;
18445;SDS011;9352;50.888;4.466;2023-08-21T10:47:56;4.65;;;1.30;;
18445;SDS011;9352;50.888;4.466;2023-08-21T10:50:23;4.53;;;1.25;;
18445;SDS011;9352;50.888;4.466;2023-08-21T10:52:51;4.03;;;1.40;;
18445;SDS011;9352;50.888;4.466;2023-08-21T10:55:19;4.97;;;1.30;;
18445;SDS011;9352;50.888;4.466;2023-08-21T10:57:48;2.53;;;1.30;;
18445;SDS011;9352;50.888;4.466;2023-08-21T11:00:17;1.73;;;1.33;;
18445;SDS011;9352;50.888;4.466;2023-08-21T11:02:46;5.40;;;1.77;;
18445;SDS011;9352;50.888;4.466;2023-08-21T11:05:14;4.15;;;1.25;;
18445;SDS011;9352;50.888;4.466;2023-08-21T11:07:42;2.40;;;1.30;;
18445;SDS011;9352;50.888;4.466;2023-08-21T11:10:10;3.42;;;1.23;;
18445;SDS011;9352;50.888;4.466;2023-08-21T11:12:38;7.38;;;1.48;;
18445;SDS011;9352;50.888;4.466;2023-08-21T11:15:13;1.90;;;1.58;;
18445;SDS011;9352;50.888;4.466;2023-08-21T11:17:43;3.75;;;1.52;;
18445;SDS011;9352;50.888;4.466;2023-08-21T11:20:17;3.42;;;1.50;;
18445;SDS011;9352;50.888;4.466;2023-08-21T11:22:44;2.85;;;1.70;;
18445;SDS011;9352;50.888;4.466;2023-08-21T11:25:11;3.28;;;1.55;;
18445;SDS011;9352;50.888;4.466;2023-08-21T11:27:40;4.35;;;1.35;;
18445;SDS011;9352;50.888;4.466;2023-08-21T11:30:07;5.03;;;1.50;;
18445;SDS011;9352;50.888;4.466;2023-08-21T11:32:37;7.38;;;2.10;;
18445;SDS011;9352;50.888;4.466;2023-08-21T11:35:06;7.95;;;1.95;;
18445;SDS011;9352;50.888;4.466;2023-08-21T11:37:34;10.27;;;1.90;;
18445;SDS011;9352;50.888;4.466;2023-08-21T11:40:06;11.65;;;2.13;;
18445;SDS011;9352;50.888;4.466;2023-08-21T11:42:34;4.85;;;1.70;;
18445;SDS011;9352;50.888;4.466;2023-08-21T11:45:01;4.35;;;1.67;;
18445;SDS011;9352;50.888;4.466;2023-08-21T11:47:31;8.68;;;2.00;;
18445;SDS011;9352;50.888;4.466;2023-08-21T11:50:02;6.72;;;1.77;;
18445;SDS011;9352;50.888;4.466;2023-08-21T11:52:31;4.03;;;1.65;;
18445;SDS011;9352;50.888;4.466;2023-08-21T11:55:00;6.07;;;1.98;;
18445;SDS011;9352;50.888;4.466;2023-08-21T11:57:27;6.53;;;1.67;;
18445;SDS011;9352;50.888;4.466;2023-08-21T11:59:55;3.92;;;1.77;;
18445;SDS011;9352;50.888;4.466;2023-08-21T12:02:22;3.72;;;1.90;;
18445;SDS011;9352;50.888;4.466;2023-08-21T12:04:53;6.07;;;2.13;;
18445;SDS011;9352;50.888;4.466;2023-08-21T12:07:21;2.92;;;1.73;;
18445;SDS011;9352;50.888;4.466;2023-08-21T12:09:49;6.32;;;2.00;;
18445;SDS011;9352;50.888;4.466;2023-08-21T12:12:16;3.35;;;1.73;;
18445;SDS011;9352;50.888;4.466;2023-08-21T12:14:43;3.22;;;2.10;;
18445;SDS011;9352;50.888;4.466;2023-08-21T12:17:10;3.05;;;1.90;;
18445;SDS011;9352;50.888;4.466;2023-08-21T12:19:37;8.60;;;2.33;;
18445;SDS011;9352;50.888;4.466;2023-08-21T12:22:04;3.60;;;1.85;;
18445;SDS011;9352;50.888;4.466;2023-08-21T12:24:31;2.72;;;1.70;;
18445;SDS011;9352;50.888;4.466;2023-08-21T12:26:59;2.78;;;1.83;;
18445;SDS011;9352;50.888;4.466;2023-08-21T12:29:26;6.00;;;2.00;;
18445;SDS011;9352;50.888;4.466;2023-08-21T12:31:53;9.57;;;2.17;;
18445;SDS011;9352;50.888;4.466;2023-08-21T12:34:20;5.45;;;2.33;;
18445;SDS011;9352;50.888;4.466;2023-08-21T12:36:49;5.97;;;2.53;;
18445;SDS011;9352;50.888;4.466;2023-08-21T12:39:16;3.10;;;1.90;;
18445;SDS011;9352;50.888;4.466;2023-08-21T12:41:43;4.13;;;1.80;;
18445;SDS011;9352;50.888;4.466;2023-08-21T12:44:11;1.85;;;1.63;;
18445;SDS011;9352;50.888;4.466;2023-08-21T12:46:38;8.10;;;2.15;;
18445;SDS011;9352;50.888;4.466;2023-08-21T12:49:05;5.55;;;2.28;;
18445;SDS011;9352;50.888;4.466;2023-08-21T12:51:32;8.13;;;1.95;;
18445;SDS011;9352;50.888;4.466;2023-08-21T12:54:00;6.88;;;2.20;;
18445;SDS011;9352;50.888;4.466;2023-08-21T12:56:27;4.13;;;2.22;;
18445;SDS011;9352;50.888;4.466;2023-08-21T12:58:54;6.80;;;2.03;;
18445;SDS011;9352;50.888;4.466;2023-08-21T13:01:22;6.45;;;2.10;;
18445;SDS011;9352;50.888;4.466;2023-08-21T13:03:49;3.70;;;2.20;;
18445;SDS011;9352;50.888;4.466;2023-08-21T13:06:16;7.05;;;2.10;;
18445;SDS011;9352;50.888;4.466;2023-08-21T13:08:43;5.35;;;2.20;;
18445;SDS011;9352;50.888;4.466;2023-08-21T13:11:10;2.50;;;1.98;;
18445;SDS011;9352;50.888;4.466;2023-08-21T13:13:37;6.10;;;2.13;;
18445;SDS011;9352;50.888;4.466;2023-08-21T13:16:04;3.00;;;2.00;;
18445;SDS011;9352;50.888;4.466;2023-08-21T13:18:32;5.38;;;2.10;;
18445;SDS011;9352;50.888;4.466;2023-08-21T13:20:59;9.68;;;1.98;;
18445;SDS011;9352;50.888;4.466;2023-08-21T13:23:28;8.98;;;2.28;;
18445;SDS011;9352;50.888;4.466;2023-08-21T13:25:55;3.63;;;2.22;;
18445;SDS011;9352;50.888;4.466;2023-08-21T13:28:22;4.15;;;2.00;;
18445;SDS011;9352;50.888;4.466;2023-08-21T13:30:49;7.95;;;3.00;;
18445;SDS011;9352;50.888;4.466;2023-08-21T13:33:19;4.20;;;2.10;;
18445;SDS011;9352;50.888;4.466;2023-08-21T13:35:47;4.68;;;2.20;;
18445;SDS011;9352;50.888;4.466;2023-08-21T13:38:14;5.13;;;2.30;;
18445;SDS011;9352;50.888;4.466;2023-08-21T13:40:41;7.63;;;2.47;;
18445;SDS011;9352;50.888;4.466;2023-08-21T13:43:08;5.90;;;2.10;;
18445;SDS011;9352;50.888;4.466;2023-08-21T13:45:37;6.25;;;2.20;;
18445;SDS011;9352;50.888;4.466;2023-08-21T13:48:05;12.65;;;2.50;;
18445;SDS011;9352;50.888;4.466;2023-08-21T13:50:32;8.07;;;2.10;;
18445;SDS011;9352;50.888;4.466;2023-08-21T13:53:00;4.63;;;2.30;;
18445;SDS011;9352;50.888;4.466;2023-08-21T13:55:27;6.70;;;2.22;;
18445;SDS011;9352;50.888;4.466;2023-08-21T13:57:54;5.55;;;2.13;;
18445;SDS011;9352;50.888;4.466;2023-08-21T14:00:21;2.97;;;1.75;;
18445;SDS011;9352;50.888;4.466;2023-08-21T14:02:48;5.88;;;2.00;;
18445;SDS011;9352;50.888;4.466;2023-08-21T14:05:16;2.95;;;1.90;;
18445;SDS011;9352;50.888;4.466;2023-08-21T14:07:43;2.78;;;1.80;;
18445;SDS011;9352;50.888;4.466;2023-08-21T14:10:12;2.72;;;1.80;;
18445;SDS011;9352;50.888;4.466;2023-08-21T14:12:39;2.10;;;1.90;;
18445;SDS011;9352;50.888;4.466;2023-08-21T14:15:06;6.70;;;1.95;;
18445;SDS011;9352;50.888;4.466;2023-08-21T14:17:33;2.63;;;1.80;;
18445;SDS011;9352;50.888;4.466;2023-08-21T14:20:01;4.35;;;2.00;;
18445;SDS011;9352;50.888;4.466;2023-08-21T14:22:28;3.53;;;1.80;;
18445;SDS011;9352;50.888;4.466;2023-08-21T14:24:55;6.20;;;1.85;;
18445;SDS011;9352;50.888;4.466;2023-08-21T14:27:23;6.00;;;2.35;;
18445;SDS011;9352;50.888;4.466;2023-08-21T14:29:50;2.53;;;2.00;;
18445;SDS011;9352;50.888;4.466;2023-08-21T14:32:17;3.63;;;1.88;;
18445;SDS011;9352;50.888;4.466;2023-08-21T14:34:44;5.93;;;1.55;;
18445;SDS011;9352;50.888;4.466;2023-08-21T14:37:12;5.03;;;1.83;;
18445;SDS011;9352;50.888;4.466;2023-08-21T14:39:40;3.40;;;1.80;;
18445;SDS011;9352;50.888;4.466;2023-08-21T14:42:07;3.33;;;1.67;;
18445;SDS011;9352;50.888;4.466;2023-08-21T14:44:36;2.53;;;1.50;;
18445;SDS011;9352;50.888;4.466;2023-08-21T14:47:03;2.78;;;1.73;;
18445;SDS011;9352;50.888;4.466;2023-08-21T14:49:30;1.95;;;1.73;;
18445;SDS011;9352;50.888;4.466;2023-08-21T14:51:57;3.63;;;1.65;;
18445;SDS011;9352;50.888;4.466;2023-08-21T14:54:24;4.63;;;1.80;;
18445;SDS011;9352;50.888;4.466;2023-08-21T14:56:51;2.58;;;1.80;;
18445;SDS011;9352;50.888;4.466;2023-08-21T14:59:17;1.67;;;1.58;;